sensor_id;sensor_type;location;lat;lon;timestamp;pressure;altitude;pressure_sealevel;temperature;humidity
54924;BME280;40825;52.270;20.984;2024-01-15T00:02:16;98381.92;;;0.33;100.00
54924;BME280;40825;52.270;20.984;2024-01-15T00:04:42;98382.38;;;0.34;100.00
54924;BME280;40825;52.270;20.984;2024-01-15T00:07:08;98378.20;;;0.34;100.00
54924;BME280;40825;52.270;20.984;2024-01-15T00:09:35;98373.21;;;0.35;100.00
54924;BME280;40825;52.270;20.984;2024-01-15T00:12:01;98367.30;;;0.36;100.00
54924;BME280;40825;52.270;20.984;2024-01-15T00:14:27;98355.86;;;0.37;100.00
54924;BME280;40825;52.270;20.984;2024-01-15T00:16:53;98353.81;;;0.36;100.00
54924;BME280;40825;52.270;20.984;2024-01-15T00:19:23;98346.52;;;0.37;100.00
54924;BME280;40825;52.270;20.984;2024-01-15T00:21:49;98344.46;;;0.37;100.00
54924;BME280;40825;52.270;20.984;2024-01-15T00:24:15;98338.02;;;0.35;100.00
54924;BME280;40825;52.270;20.984;2024-01-15T00:26:40;98335.83;;;0.33;100.00
54924;BME280;40825;52.270;20.984;2024-01-15T00:29:07;98328.79;;;0.32;100.00
54924;BME280;40825;52.270;20.984;2024-01-15T00:31:33;98322.38;;;0.32;100.00
54924;BME280;40825;52.270;20.984;2024-01-15T00:33:59;98321.36;;;0.32;100.00
54924;BME280;40825;52.270;20.984;2024-01-15T00:36:24;98313.36;;;0.32;100.00
54924;BME280;40825;52.270;20.984;2024-01-15T00:38:50;98309.13;;;0.32;100.00
54924;BME280;40825;52.270;20.984;2024-01-15T00:41:16;98308.90;;;0.33;100.00
54924;BME280;40825;52.270;20.984;2024-01-15T00:43:44;98302.47;;;0.32;100.00
54924;BME280;40825;52.270;20.984;2024-01-15T00:46:10;98302.52;;;0.33;100.00
54924;BME280;40825;52.270;20.984;2024-01-15T00:48:36;98302.46;;;0.34;100.00
54924;BME280;40825;52.270;20.984;2024-01-15T00:51:03;98296.52;;;0.34;100.00
54924;BME280;40825;52.270;20.984;2024-01-15T00:53:32;98295.70;;;0.35;100.00
54924;BME280;40825;52.270;20.984;2024-01-15T00:55:58;98289.36;;;0.35;100.00
54924;BME280;40825;52.270;20.984;2024-01-15T00:58:25;98285.64;;;0.32;100.00
54924;BME280;40825;52.270;20.984;2024-01-15T01:00:51;98281.33;;;0.30;100.00
54924;BME280;40825;52.270;20.984;2024-01-15T01:03:17;98281.06;;;0.30;100.00
54924;BME280;40825;52.270;20.984;2024-01-15T01:05:43;98281.65;;;0.27;100.00
54924;BME280;40825;52.270;20.984;2024-01-15T01:08:09;98278.89;;;0.24;100.00
54924;BME280;40825;52.270;20.984;2024-01-15T01:10:34;98276.10;;;0.22;100.00
54924;BME280;40825;52.270;20.984;2024-01-15T01:13:00;98271.27;;;0.20;100.00
54924;BME280;40825;52.270;20.984;2024-01-15T01:15:26;98268.35;;;0.20;100.00
54924;BME280;40825;52.270;20.984;2024-01-15T01:17:52;98265.69;;;0.20;100.00
54924;BME280;40825;52.270;20.984;2024-01-15T01:20:18;98257.14;;;0.17;100.00
54924;BME280;40825;52.270;20.984;2024-01-15T01:22:43;98258.36;;;0.15;100.00
54924;BME280;40825;52.270;20.984;2024-01-15T01:25:09;98259.15;;;0.15;100.00
54924;BME280;40825;52.270;20.984;2024-01-15T01:27:35;98260.17;;;0.13;100.00
54924;BME280;40825;52.270;20.984;2024-01-15T01:30:01;98256.58;;;0.11;100.00
54924;BME280;40825;52.270;20.984;2024-01-15T01:32:27;98254.79;;;0.10;100.00
54924;BME280;40825;52.270;20.984;2024-01-15T01:34:53;98253.08;;;0.08;100.00
54924;BME280;40825;52.270;20.984;2024-01-15T01:37:18;98248.58;;;0.07;100.00
54924;BME280;40825;52.270;20.984;2024-01-15T01:39:44;98247.70;;;0.07;100.00
54924;BME280;40825;52.270;20.984;2024-01-15T01:42:11;98246.73;;;0.08;100.00
54924;BME280;40825;52.270;20.984;2024-01-15T01:44:37;98239.33;;;0.09;100.00
54924;BME280;40825;52.270;20.984;2024-01-15T01:47:03;98238.46;;;0.09;100.00
54924;BME280;40825;52.270;20.984;2024-01-15T01:49:29;98233.27;;;0.10;100.00
54924;BME280;40825;52.270;20.984;2024-01-15T01:51:57;98228.80;;;0.11;100.00
54924;BME280;40825;52.270;20.984;2024-01-15T01:54:24;98219.88;;;0.09;100.00
54924;BME280;40825;52.270;20.984;2024-01-15T01:56:51;98219.75;;;0.09;100.00
54924;BME280;40825;52.270;20.984;2024-01-15T01:59:17;98219.82;;;0.08;100.00
54924;BME280;40825;52.270;20.984;2024-01-15T02:01:44;98220.11;;;0.09;100.00
54924;BME280;40825;52.270;20.984;2024-01-15T02:04:11;98217.18;;;0.10;100.00
54924;BME280;40825;52.270;20.984;2024-01-15T02:06:37;98210.09;;;0.11;100.00
54924;BME280;40825;52.270;20.984;2024-01-15T02:09:03;98216.38;;;0.11;100.00
54924;BME280;40825;52.270;20.984;2024-01-15T02:11:29;98212.80;;;0.11;100.00
54924;BME280;40825;52.270;20.984;2024-01-15T02:13:55;98210.92;;;0.12;100.00
54924;BME280;40825;52.270;20.984;2024-01-15T02:16:21;98206.83;;;0.13;100.00
54924;BME280;40825;52.270;20.984;2024-01-15T02:18:47;98197.60;;;0.14;100.00
54924;BME280;40825;52.270;20.984;2024-01-15T02:21:12;98194.63;;;0.16;100.00
54924;BME280;40825;52.270;20.984;2024-01-15T02:23:38;98191.34;;;0.17;100.00
54924;BME280;40825;52.270;20.984;2024-01-15T02:26:05;98180.57;;;0.18;100.00
54924;BME280;40825;52.270;20.984;2024-01-15T02:28:32;98178.95;;;0.18;100.00
54924;BME280;40825;52.270;20.984;2024-01-15T02:30:58;98178.45;;;0.20;100.00
54924;BME280;40825;52.270;20.984;2024-01-15T02:33:23;98178.33;;;0.22;100.00
54924;BME280;40825;52.270;20.984;2024-01-15T02:35:49;98173.52;;;0.21;100.00
54924;BME280;40825;52.270;20.984;2024-01-15T02:38:20;98168.30;;;0.21;100.00
54924;BME280;40825;52.270;20.984;2024-01-15T02:40:46;98168.00;;;0.22;100.00
54924;BME280;40825;52.270;20.984;2024-01-15T02:43:12;98164.83;;;0.22;100.00
54924;BME280;40825;52.270;20.984;2024-01-15T02:45:39;98162.25;;;0.23;100.00
54924;BME280;40825;52.270;20.984;2024-01-15T02:48:04;98160.50;;;0.24;100.00
54924;BME280;40825;52.270;20.984;2024-01-15T02:50:30;98153.90;;;0.22;100.00
54924;BME280;40825;52.270;20.984;2024-01-15T02:52:56;98147.88;;;0.21;100.00
54924;BME280;40825;52.270;20.984;2024-01-15T02:55:21;98145.48;;;0.20;100.00
54924;BME280;40825;52.270;20.984;2024-01-15T02:57:47;98139.06;;;0.20;100.00
54924;BME280;40825;52.270;20.984;2024-01-15T03:00:13;98129.05;;;0.17;100.00
54924;BME280;40825;52.270;20.984;2024-01-15T03:02:39;98124.30;;;0.18;100.00
54924;BME280;40825;52.270;20.984;2024-01-15T03:05:12;98120.17;;;0.17;100.00
54924;BME280;40825;52.270;20.984;2024-01-15T03:07:37;98110.23;;;0.17;100.00
54924;BME280;40825;52.270;20.984;2024-01-15T03:10:04;98110.11;;;0.16;100.00
54924;BME280;40825;52.270;20.984;2024-01-15T03:12:31;98103.56;;;0.15;100.00
54924;BME280;40825;52.270;20.984;2024-01-15T03:14:57;98104.01;;;0.13;100.00
54924;BME280;40825;52.270;20.984;2024-01-15T03:17:22;98104.89;;;0.10;100.00
54924;BME280;40825;52.270;20.984;2024-01-15T03:19:48;98103.39;;;0.06;100.00
54924;BME280;40825;52.270;20.984;2024-01-15T03:22:15;98098.63;;;0.04;100.00
54924;BME280;40825;52.270;20.984;2024-01-15T03:24:41;98098.66;;;0.00;100.00
54924;BME280;40825;52.270;20.984;2024-01-15T03:27:07;98093.44;;;-0.02;100.00
54924;BME280;40825;52.270;20.984;2024-01-15T03:29:33;98094.27;;;-0.04;100.00
54924;BME280;40825;52.270;20.984;2024-01-15T03:31:58;98087.23;;;-0.08;100.00
54924;BME280;40825;52.270;20.984;2024-01-15T03:34:24;98086.23;;;-0.10;100.00
54924;BME280;40825;52.270;20.984;2024-01-15T03:36:50;98082.85;;;-0.11;100.00
54924;BME280;40825;52.270;20.984;2024-01-15T03:39:15;98081.23;;;-0.12;100.00
54924;BME280;40825;52.270;20.984;2024-01-15T03:41:41;98079.58;;;-0.15;100.00
54924;BME280;40825;52.270;20.984;2024-01-15T03:44:14;98071.77;;;-0.15;100.00
54924;BME280;40825;52.270;20.984;2024-01-15T03:46:39;98074.19;;;-0.17;100.00
54924;BME280;40825;52.270;20.984;2024-01-15T03:49:05;98071.29;;;-0.16;100.00
54924;BME280;40825;52.270;20.984;2024-01-15T03:51:31;98065.16;;;-0.14;100.00
54924;BME280;40825;52.270;20.984;2024-01-15T03:53:56;98060.73;;;-0.15;100.00
54924;BME280;40825;52.270;20.984;2024-01-15T03:56:22;98058.15;;;-0.14;100.00
54924;BME280;40825;52.270;20.984;2024-01-15T03:58:48;98051.59;;;-0.13;100.00
54924;BME280;40825;52.270;20.984;2024-01-15T04:01:14;98045.48;;;-0.12;100.00
54924;BME280;40825;52.270;20.984;2024-01-15T04:03:39;98043.91;;;-0.12;100.00
54924;BME280;40825;52.270;20.984;2024-01-15T04:06:13;98043.45;;;-0.12;100.00
54924;BME280;40825;52.270;20.984;2024-01-15T04:08:41;98040.57;;;-0.13;100.00
54924;BME280;40825;52.270;20.984;2024-01-15T04:11:07;98032.38;;;-0.13;100.00
54924;BME280;40825;52.270;20.984;2024-01-15T04:13:33;98029.39;;;-0.15;100.00
54924;BME280;40825;52.270;20.984;2024-01-15T04:16:04;98026.90;;;-0.16;100.00
54924;BME280;40825;52.270;20.984;2024-01-15T04:18:32;98021.55;;;-0.15;100.00
54924;BME280;40825;52.270;20.984;2024-01-15T04:20:58;98018.42;;;-0.14;100.00
54924;BME280;40825;52.270;20.984;2024-01-15T04:23:26;98005.17;;;-0.12;100.00
54924;BME280;40825;52.270;20.984;2024-01-15T04:25:52;97996.38;;;-0.12;100.00
54924;BME280;40825;52.270;20.984;2024-01-15T04:28:27;97993.67;;;-0.11;100.00
54924;BME280;40825;52.270;20.984;2024-01-15T04:30:55;97988.01;;;-0.11;100.00
54924;BME280;40825;52.270;20.984;2024-01-15T04:33:20;97984.91;;;-0.10;100.00
54924;BME280;40825;52.270;20.984;2024-01-15T04:35:55;97975.38;;;-0.07;100.00
54924;BME280;40825;52.270;20.984;2024-01-15T04:38:24;97973.94;;;-0.06;100.00
54924;BME280;40825;52.270;20.984;2024-01-15T04:40:57;97970.35;;;-0.05;100.00
54924;BME280;40825;52.270;20.984;2024-01-15T04:43:25;97969.06;;;-0.03;100.00
54924;BME280;40825;52.270;20.984;2024-01-15T04:45:53;97969.11;;;-0.02;100.00
54924;BME280;40825;52.270;20.984;2024-01-15T04:51:45;97962.92;;;0.00;100.00
54924;BME280;40825;52.270;20.984;2024-01-15T04:54:13;97962.80;;;0.00;100.00
54924;BME280;40825;52.270;20.984;2024-01-15T04:56:43;97966.98;;;0.02;100.00
54924;BME280;40825;52.270;20.984;2024-01-15T04:59:10;97965.20;;;0.02;100.00
54924;BME280;40825;52.270;20.984;2024-01-15T05:01:36;97963.98;;;0.02;100.00
54924;BME280;40825;52.270;20.984;2024-01-15T05:04:15;97957.98;;;0.01;100.00
54924;BME280;40825;52.270;20.984;2024-01-15T05:06:41;97955.27;;;0.02;100.00
54924;BME280;40825;52.270;20.984;2024-01-15T05:09:06;97957.58;;;0.03;100.00
54924;BME280;40825;52.270;20.984;2024-01-15T05:11:32;97954.86;;;0.02;100.00
54924;BME280;40825;52.270;20.984;2024-01-15T05:13:57;97951.28;;;0.03;100.00
54924;BME280;40825;52.270;20.984;2024-01-15T05:16:23;97952.23;;;0.02;100.00
54924;BME280;40825;52.270;20.984;2024-01-15T05:18:48;97945.05;;;0.03;100.00
54924;BME280;40825;52.270;20.984;2024-01-15T05:21:14;97946.55;;;0.02;100.00
54924;BME280;40825;52.270;20.984;2024-01-15T05:23:39;97943.40;;;0.02;100.00
54924;BME280;40825;52.270;20.984;2024-01-15T05:26:05;97945.02;;;0.01;100.00
54924;BME280;40825;52.270;20.984;2024-01-15T05:28:30;97941.10;;;0.00;100.00
54924;BME280;40825;52.270;20.984;2024-01-15T05:30:56;97941.38;;;-0.01;100.00
54924;BME280;40825;52.270;20.984;2024-01-15T05:33:25;97940.69;;;0.01;100.00
54924;BME280;40825;52.270;20.984;2024-01-15T05:35:50;97941.98;;;0.00;100.00
54924;BME280;40825;52.270;20.984;2024-01-15T05:38:16;97940.39;;;-0.02;100.00
54924;BME280;40825;52.270;20.984;2024-01-15T05:40:42;97942.91;;;-0.02;100.00
54924;BME280;40825;52.270;20.984;2024-01-15T05:43:07;97944.35;;;-0.01;100.00
54924;BME280;40825;52.270;20.984;2024-01-15T05:45:34;97939.62;;;-0.01;100.00
54924;BME280;40825;52.270;20.984;2024-01-15T05:48:00;97938.84;;;0.00;100.00
54924;BME280;40825;52.270;20.984;2024-01-15T05:50:26;97936.41;;;0.00;100.00
54924;BME280;40825;52.270;20.984;2024-01-15T05:52:51;97936.54;;;0.00;100.00
54924;BME280;40825;52.270;20.984;2024-01-15T05:55:17;97937.85;;;-0.01;100.00
54924;BME280;40825;52.270;20.984;2024-01-15T05:57:44;97934.54;;;-0.01;100.00
54924;BME280;40825;52.270;20.984;2024-01-15T06:00:10;97928.25;;;-0.01;100.00
54924;BME280;40825;52.270;20.984;2024-01-15T06:02:37;97932.36;;;0.00;100.00
54924;BME280;40825;52.270;20.984;2024-01-15T06:05:04;97928.65;;;-0.01;100.00
54924;BME280;40825;52.270;20.984;2024-01-15T06:07:29;97922.95;;;-0.02;100.00
54924;BME280;40825;52.270;20.984;2024-01-15T06:09:55;97922.38;;;-0.03;100.00
54924;BME280;40825;52.270;20.984;2024-01-15T06:12:22;97921.80;;;-0.04;100.00
54924;BME280;40825;52.270;20.984;2024-01-15T06:14:48;97920.75;;;-0.04;100.00
54924;BME280;40825;52.270;20.984;2024-01-15T06:17:13;97916.89;;;-0.05;100.00
54924;BME280;40825;52.270;20.984;2024-01-15T06:19:39;97914.70;;;-0.06;100.00
54924;BME280;40825;52.270;20.984;2024-01-15T06:22:04;97906.55;;;-0.06;100.00
54924;BME280;40825;52.270;20.984;2024-01-15T06:24:30;97908.29;;;-0.05;100.00
54924;BME280;40825;52.270;20.984;2024-01-15T06:26:55;97907.44;;;-0.05;100.00
54924;BME280;40825;52.270;20.984;2024-01-15T06:29:21;97908.30;;;-0.05;100.00
54924;BME280;40825;52.270;20.984;2024-01-15T06:31:46;97904.33;;;-0.04;100.00
54924;BME280;40825;52.270;20.984;2024-01-15T06:34:12;97901.98;;;-0.03;100.00
54924;BME280;40825;52.270;20.984;2024-01-15T06:36:37;97899.05;;;-0.04;100.00
54924;BME280;40825;52.270;20.984;2024-01-15T06:39:03;97903.96;;;-0.04;100.00
54924;BME280;40825;52.270;20.984;2024-01-15T06:41:28;97897.88;;;-0.04;100.00
54924;BME280;40825;52.270;20.984;2024-01-15T06:43:54;97894.77;;;-0.06;100.00
54924;BME280;40825;52.270;20.984;2024-01-15T06:46:21;97892.10;;;-0.07;100.00
54924;BME280;40825;52.270;20.984;2024-01-15T06:48:47;97892.07;;;-0.05;100.00
54924;BME280;40825;52.270;20.984;2024-01-15T06:51:12;97892.31;;;-0.06;100.00
54924;BME280;40825;52.270;20.984;2024-01-15T06:53:38;97895.05;;;-0.05;100.00
54924;BME280;40825;52.270;20.984;2024-01-15T06:56:03;97893.68;;;-0.06;100.00
54924;BME280;40825;52.270;20.984;2024-01-15T06:58:30;97895.62;;;-0.06;100.00
54924;BME280;40825;52.270;20.984;2024-01-15T07:00:56;97900.20;;;-0.05;100.00
54924;BME280;40825;52.270;20.984;2024-01-15T07:03:22;97902.77;;;-0.04;100.00
54924;BME280;40825;52.270;20.984;2024-01-15T07:05:47;97905.14;;;-0.03;100.00
54924;BME280;40825;52.270;20.984;2024-01-15T07:08:13;97902.27;;;-0.04;100.00
54924;BME280;40825;52.270;20.984;2024-01-15T07:10:38;97899.70;;;-0.05;100.00
54924;BME280;40825;52.270;20.984;2024-01-15T07:13:04;97897.52;;;-0.05;100.00
54924;BME280;40825;52.270;20.984;2024-01-15T07:15:30;97896.09;;;-0.07;100.00
54924;BME280;40825;52.270;20.984;2024-01-15T07:17:56;97892.17;;;-0.08;100.00
54924;BME280;40825;52.270;20.984;2024-01-15T07:20:22;97895.45;;;-0.07;100.00
54924;BME280;40825;52.270;20.984;2024-01-15T07:22:47;97895.36;;;-0.08;100.00
54924;BME280;40825;52.270;20.984;2024-01-15T07:25:13;97896.39;;;-0.09;100.00
54924;BME280;40825;52.270;20.984;2024-01-15T07:27:38;97898.69;;;-0.09;100.00
54924;BME280;40825;52.270;20.984;2024-01-15T07:30:04;97894.35;;;-0.11;100.00
54924;BME280;40825;52.270;20.984;2024-01-15T07:32:31;97900.10;;;-0.12;100.00
54924;BME280;40825;52.270;20.984;2024-01-15T07:34:57;97900.08;;;-0.15;100.00
54924;BME280;40825;52.270;20.984;2024-01-15T07:37:24;97898.31;;;-0.18;100.00
54924;BME280;40825;52.270;20.984;2024-01-15T07:39:50;97896.35;;;-0.20;100.00
54924;BME280;40825;52.270;20.984;2024-01-15T07:42:15;97899.76;;;-0.23;100.00
54924;BME280;40825;52.270;20.984;2024-01-15T07:44:41;97906.23;;;-0.23;100.00
54924;BME280;40825;52.270;20.984;2024-01-15T07:47:06;97907.74;;;-0.22;100.00
54924;BME280;40825;52.270;20.984;2024-01-15T07:49:34;97907.20;;;-0.22;100.00
54924;BME280;40825;52.270;20.984;2024-01-15T07:52:00;97901.95;;;-0.22;100.00
54924;BME280;40825;52.270;20.984;2024-01-15T07:54:25;97902.53;;;-0.20;100.00
54924;BME280;40825;52.270;20.984;2024-01-15T07:56:59;97906.33;;;-0.16;100.00
54924;BME280;40825;52.270;20.984;2024-01-15T07:59:26;97906.31;;;-0.13;100.00
54924;BME280;40825;52.270;20.984;2024-01-15T08:01:52;97907.15;;;-0.11;100.00
54924;BME280;40825;52.270;20.984;2024-01-15T08:04:18;97908.67;;;-0.11;100.00
54924;BME280;40825;52.270;20.984;2024-01-15T08:06:44;97906.83;;;-0.10;100.00
54924;BME280;40825;52.270;20.984;2024-01-15T08:09:10;97907.23;;;-0.10;100.00
54924;BME280;40825;52.270;20.984;2024-01-15T08:11:35;97907.27;;;-0.11;100.00
54924;BME280;40825;52.270;20.984;2024-01-15T08:14:01;97906.50;;;-0.12;100.00
54924;BME280;40825;52.270;20.984;2024-01-15T08:16:26;97906.80;;;-0.13;100.00
54924;BME280;40825;52.270;20.984;2024-01-15T08:18:53;97908.96;;;-0.13;100.00
54924;BME280;40825;52.270;20.984;2024-01-15T08:21:19;97912.80;;;-0.13;100.00
54924;BME280;40825;52.270;20.984;2024-01-15T08:23:44;97915.20;;;-0.13;100.00
54924;BME280;40825;52.270;20.984;2024-01-15T08:26:10;97906.69;;;-0.12;100.00
54924;BME280;40825;52.270;20.984;2024-01-15T08:28:36;97905.29;;;-0.07;100.00
54924;BME280;40825;52.270;20.984;2024-01-15T08:31:02;97908.33;;;-0.02;100.00
54924;BME280;40825;52.270;20.984;2024-01-15T08:33:28;97911.61;;;0.06;100.00
54924;BME280;40825;52.270;20.984;2024-01-15T08:35:54;97914.11;;;0.14;100.00
54924;BME280;40825;52.270;20.984;2024-01-15T08:38:20;97914.14;;;0.24;100.00
54924;BME280;40825;52.270;20.984;2024-01-15T08:40:45;97918.91;;;0.33;100.00
54924;BME280;40825;52.270;20.984;2024-01-15T08:43:11;97922.44;;;0.41;100.00
54924;BME280;40825;52.270;20.984;2024-01-15T08:45:36;97919.94;;;0.50;100.00
54924;BME280;40825;52.270;20.984;2024-01-15T08:48:02;97919.85;;;0.51;100.00
54924;BME280;40825;52.270;20.984;2024-01-15T08:50:29;97930.30;;;0.49;100.00
54924;BME280;40825;52.270;20.984;2024-01-15T08:52:55;97920.21;;;0.45;100.00
54924;BME280;40825;52.270;20.984;2024-01-15T08:55:21;97925.48;;;0.43;100.00
54924;BME280;40825;52.270;20.984;2024-01-15T08:57:48;97931.76;;;0.41;100.00
54924;BME280;40825;52.270;20.984;2024-01-15T09:00:14;97933.16;;;0.36;100.00
54924;BME280;40825;52.270;20.984;2024-01-15T09:02:40;97932.41;;;0.34;100.00
54924;BME280;40825;52.270;20.984;2024-01-15T09:05:05;97939.80;;;0.30;100.00
54924;BME280;40825;52.270;20.984;2024-01-15T09:07:32;97943.98;;;0.29;100.00
54924;BME280;40825;52.270;20.984;2024-01-15T09:09:57;97942.03;;;0.28;100.00
54924;BME280;40825;52.270;20.984;2024-01-15T09:12:25;97936.30;;;0.35;100.00
54924;BME280;40825;52.270;20.984;2024-01-15T09:14:51;97931.75;;;0.44;100.00
54924;BME280;40825;52.270;20.984;2024-01-15T09:17:17;97934.66;;;0.44;100.00
54924;BME280;40825;52.270;20.984;2024-01-15T09:19:43;97930.86;;;0.45;100.00
54924;BME280;40825;52.270;20.984;2024-01-15T09:22:09;97924.79;;;0.51;100.00
54924;BME280;40825;52.270;20.984;2024-01-15T09:24:35;97928.07;;;0.70;100.00
54924;BME280;40825;52.270;20.984;2024-01-15T09:27:00;97921.45;;;0.84;100.00
54924;BME280;40825;52.270;20.984;2024-01-15T09:29:26;97917.89;;;1.00;100.00
54924;BME280;40825;52.270;20.984;2024-01-15T09:31:51;97920.55;;;1.10;100.00
54924;BME280;40825;52.270;20.984;2024-01-15T09:34:17;97917.15;;;1.05;100.00
54924;BME280;40825;52.270;20.984;2024-01-15T09:36:43;97911.14;;;0.99;100.00
54924;BME280;40825;52.270;20.984;2024-01-15T09:39:09;97915.70;;;0.94;100.00
54924;BME280;40825;52.270;20.984;2024-01-15T09:41:37;97908.60;;;0.90;100.00
54924;BME280;40825;52.270;20.984;2024-01-15T09:44:03;97910.53;;;0.90;100.00
54924;BME280;40825;52.270;20.984;2024-01-15T09:46:33;97913.52;;;0.89;100.00
54924;BME280;40825;52.270;20.984;2024-01-15T09:49:00;97913.13;;;0.92;100.00
54924;BME280;40825;52.270;20.984;2024-01-15T09:51:31;97914.04;;;0.99;100.00
54924;BME280;40825;52.270;20.984;2024-01-15T09:53:57;97914.79;;;0.97;100.00
54924;BME280;40825;52.270;20.984;2024-01-15T09:56:23;97913.00;;;0.95;100.00
54924;BME280;40825;52.270;20.984;2024-01-15T09:58:50;97905.90;;;0.92;100.00
54924;BME280;40825;52.270;20.984;2024-01-15T10:01:17;97907.66;;;0.88;100.00
54924;BME280;40825;52.270;20.984;2024-01-15T10:03:42;97905.70;;;0.87;100.00
54924;BME280;40825;52.270;20.984;2024-01-15T10:06:08;97901.05;;;0.85;100.00
54924;BME280;40825;52.270;20.984;2024-01-15T10:08:36;97901.96;;;0.85;100.00
54924;BME280;40825;52.270;20.984;2024-01-15T10:11:02;97901.54;;;0.86;100.00
54924;BME280;40825;52.270;20.984;2024-01-15T10:13:30;97896.95;;;0.90;100.00
54924;BME280;40825;52.270;20.984;2024-01-15T10:15:56;97896.59;;;0.90;100.00
54924;BME280;40825;52.270;20.984;2024-01-15T10:18:21;97894.47;;;0.91;100.00
54924;BME280;40825;52.270;20.984;2024-01-15T10:20:47;97901.70;;;0.91;100.00
54924;BME280;40825;52.270;20.984;2024-01-15T10:23:14;97897.90;;;0.92;100.00
54924;BME280;40825;52.270;20.984;2024-01-15T10:25:41;97902.01;;;0.90;100.00
54924;BME280;40825;52.270;20.984;2024-01-15T10:28:07;97900.52;;;0.94;100.00
54924;BME280;40825;52.270;20.984;2024-01-15T10:30:33;97900.46;;;0.95;100.00
54924;BME280;40825;52.270;20.984;2024-01-15T10:33:00;97902.24;;;0.89;100.00
54924;BME280;40825;52.270;20.984;2024-01-15T10:35:36;97902.95;;;0.86;100.00
54924;BME280;40825;52.270;20.984;2024-01-15T10:38:02;97896.78;;;0.82;100.00
54924;BME280;40825;52.270;20.984;2024-01-15T10:40:28;97891.98;;;0.85;100.00
54924;BME280;40825;52.270;20.984;2024-01-15T10:42:54;97884.05;;;0.88;100.00
54924;BME280;40825;52.270;20.984;2024-01-15T10:45:20;97885.58;;;0.88;100.00
54924;BME280;40825;52.270;20.984;2024-01-15T10:47:46;97886.94;;;0.90;100.00
54924;BME280;40825;52.270;20.984;2024-01-15T10:50:12;97895.44;;;0.92;100.00
54924;BME280;40825;52.270;20.984;2024-01-15T10:52:38;97893.23;;;0.94;100.00
54924;BME280;40825;52.270;20.984;2024-01-15T10:55:09;97899.61;;;0.99;100.00
54924;BME280;40825;52.270;20.984;2024-01-15T10:57:37;97892.72;;;1.03;100.00
54924;BME280;40825;52.270;20.984;2024-01-15T11:00:06;97895.10;;;1.01;100.00
54924;BME280;40825;52.270;20.984;2024-01-15T11:02:35;97897.63;;;1.04;100.00
54924;BME280;40825;52.270;20.984;2024-01-15T11:05:01;97898.55;;;1.02;100.00
54924;BME280;40825;52.270;20.984;2024-01-15T11:07:27;97903.14;;;1.01;100.00
54924;BME280;40825;52.270;20.984;2024-01-15T11:09:55;97898.24;;;0.95;100.00
54924;BME280;40825;52.270;20.984;2024-01-15T11:12:20;97893.97;;;0.97;100.00
54924;BME280;40825;52.270;20.984;2024-01-15T11:14:47;97897.05;;;0.97;100.00
54924;BME280;40825;52.270;20.984;2024-01-15T11:17:14;97897.23;;;0.94;100.00
54924;BME280;40825;52.270;20.984;2024-01-15T11:19:47;97893.21;;;0.91;100.00
54924;BME280;40825;52.270;20.984;2024-01-15T11:24:53;97887.80;;;0.87;100.00
54924;BME280;40825;52.270;20.984;2024-01-15T11:27:41;97887.88;;;0.86;100.00
54924;BME280;40825;52.270;20.984;2024-01-15T11:30:12;97880.23;;;0.85;100.00
54924;BME280;40825;52.270;20.984;2024-01-15T11:32:38;97876.67;;;0.85;100.00
54924;BME280;40825;52.270;20.984;2024-01-15T11:35:06;97879.36;;;0.83;100.00
54924;BME280;40825;52.270;20.984;2024-01-15T11:43:04;97876.92;;;0.80;100.00
54924;BME280;40825;52.270;20.984;2024-01-15T11:45:31;97880.42;;;0.77;100.00
54924;BME280;40825;52.270;20.984;2024-01-15T11:48:14;97875.36;;;0.76;100.00
54924;BME280;40825;52.270;20.984;2024-01-15T11:50:50;97875.67;;;0.75;100.00
54924;BME280;40825;52.270;20.984;2024-01-15T11:55:45;97871.71;;;0.68;100.00
54924;BME280;40825;52.270;20.984;2024-01-15T11:58:11;97871.04;;;0.71;100.00
54924;BME280;40825;52.270;20.984;2024-01-15T12:00:45;97879.04;;;0.77;100.00
54924;BME280;40825;52.270;20.984;2024-01-15T12:03:12;97874.97;;;0.79;100.00
54924;BME280;40825;52.270;20.984;2024-01-15T12:05:38;97868.23;;;0.74;100.00
54924;BME280;40825;52.270;20.984;2024-01-15T12:08:04;97864.03;;;0.74;100.00
54924;BME280;40825;52.270;20.984;2024-01-15T12:10:37;97864.83;;;0.73;100.00
54924;BME280;40825;52.270;20.984;2024-01-15T12:13:11;97867.80;;;0.72;100.00
54924;BME280;40825;52.270;20.984;2024-01-15T12:15:38;97875.86;;;0.69;100.00
54924;BME280;40825;52.270;20.984;2024-01-15T12:18:07;97869.54;;;0.66;100.00
54924;BME280;40825;52.270;20.984;2024-01-15T12:20:33;97868.67;;;0.63;100.00
54924;BME280;40825;52.270;20.984;2024-01-15T12:23:01;97859.67;;;0.60;100.00
54924;BME280;40825;52.270;20.984;2024-01-15T12:25:31;97865.56;;;0.60;100.00
54924;BME280;40825;52.270;20.984;2024-01-15T12:27:58;97860.34;;;0.62;100.00
54924;BME280;40825;52.270;20.984;2024-01-15T12:30:26;97853.84;;;0.63;100.00
54924;BME280;40825;52.270;20.984;2024-01-15T12:32:52;97852.77;;;0.60;100.00
54924;BME280;40825;52.270;20.984;2024-01-15T12:35:17;97856.61;;;0.56;100.00
54924;BME280;40825;52.270;20.984;2024-01-15T12:37:43;97861.09;;;0.50;100.00
54924;BME280;40825;52.270;20.984;2024-01-15T12:40:11;97864.55;;;0.43;100.00
54924;BME280;40825;52.270;20.984;2024-01-15T12:42:39;97861.14;;;0.30;100.00
54924;BME280;40825;52.270;20.984;2024-01-15T12:45:05;97855.21;;;0.15;100.00
54924;BME280;40825;52.270;20.984;2024-01-15T12:47:31;97852.23;;;0.08;100.00
54924;BME280;40825;52.270;20.984;2024-01-15T12:49:58;97854.71;;;0.02;100.00
54924;BME280;40825;52.270;20.984;2024-01-15T12:52:27;97854.46;;;-0.04;100.00
54924;BME280;40825;52.270;20.984;2024-01-15T12:54:53;97858.39;;;-0.01;100.00
54924;BME280;40825;52.270;20.984;2024-01-15T12:57:18;97858.33;;;0.05;100.00
54924;BME280;40825;52.270;20.984;2024-01-15T12:59:44;97855.65;;;0.07;100.00